Time;durP1;ratioP1;P1;durP2;ratioP2;P2;SDS_P1;SDS_P2;PMS_P1;PMS_P2;Temp;Humidity;BMP_temperature;BMP_pressure;BME280_temperature;BME280_humidity;BME280_pressure;Samples;Min_cycle;Max_cycle;Signal;HPM_P1;HPM_P2
2022/12/27 00:01:20;;;;;;;11.63;5.15;;;;;;;2.39;96.97;102063.66;5029228;28;20029;-56
2022/12/27 00:03:46;;;;;;;15.68;5.30;;;;;;;2.38;97.08;102061.97;5023634;28;20045;-57
2022/12/27 00:06:16;;;;;;;18.15;5.72;;;;;;;2.35;97.67;102067.34;5023727;28;20034;-58
2022/12/27 00:08:42;;;;;;;16.13;6.07;;;;;;;2.38;97.49;102082.91;5024388;28;20033;-55
2022/12/27 00:11:10;;;;;;;11.73;5.22;;;;;;;2.36;97.57;102074.28;5026333;28;20108;-58
2022/12/27 00:13:36;;;;;;;15.82;5.25;;;;;;;2.39;97.71;102084.59;5025002;28;20025;-57
2022/12/27 00:16:04;;;;;;;13.63;5.40;;;;;;;2.45;97.57;102086.91;5025658;28;20044;-57
2022/12/27 00:18:29;;;;;;;19.17;5.68;;;;;;;2.40;97.68;102081.06;5025819;28;20033;-57
2022/12/27 00:20:59;;;;;;;14.95;5.70;;;;;;;2.44;97.88;102085.22;5024488;28;20108;-57
2022/12/27 00:23:24;;;;;;;15.68;5.50;;;;;;;2.44;97.92;102082.59;5024279;28;20044;-56
2022/12/27 00:25:50;;;;;;;15.73;5.38;;;;;;;2.39;98.09;102079.34;5022394;28;20457;-57
2022/12/27 00:28:15;;;;;;;18.70;5.85;;;;;;;2.38;98.43;102072.44;5033093;28;20049;-58
2022/12/27 00:30:40;;;;;;;10.60;5.50;;;;;;;2.38;98.34;102078.50;5022316;28;20674;-56
2022/12/27 00:33:05;;;;;;;13.20;5.20;;;;;;;2.34;98.32;102087.47;5017196;28;20112;-59
2022/12/27 00:35:31;;;;;;;15.57;5.70;;;;;;;2.41;98.13;102080.13;5028724;28;20041;-56
2022/12/27 00:37:56;;;;;;;10.90;5.32;;;;;;;2.39;98.25;102084.59;5025940;28;20033;-56
2022/12/27 00:40:21;;;;;;;18.42;5.80;;;;;;;2.41;98.25;102073.13;5025537;28;20040;-57
2022/12/27 00:42:46;;;;;;;14.88;5.68;;;;;;;2.40;98.57;102079.28;5026531;28;20037;-55
2022/12/27 00:45:12;;;;;;;15.38;5.38;;;;;;;2.37;98.75;102089.91;5025017;28;20029;-55
2022/12/27 00:47:37;;;;;;;13.73;5.15;;;;;;;2.43;98.28;102086.16;5025038;28;20484;-56
2022/12/27 00:50:03;;;;;;;14.13;5.45;;;;;;;2.46;98.16;102085.97;5025351;28;20091;-57
2022/12/27 00:52:28;;;;;;;19.48;5.40;;;;;;;2.40;98.50;102086.28;5025032;28;20156;-57
2022/12/27 00:54:54;;;;;;;16.25;5.13;;;;;;;2.40;98.45;102091.53;5021340;28;20116;-58
2022/12/27 00:57:19;;;;;;;16.85;5.50;;;;;;;2.38;99.29;102098.63;5023879;28;20037;-56
2022/12/27 00:59:45;;;;;;;14.73;5.30;;;;;;;2.43;99.48;102096.63;5021290;28;20548;-57
2022/12/27 01:02:11;;;;;;;15.00;5.28;;;;;;;2.41;98.95;102099.31;5020714;28;20022;-56
2022/12/27 01:04:36;;;;;;;13.27;4.85;;;;;;;2.48;98.99;102112.94;5023509;28;20044;-57
2022/12/27 01:07:01;;;;;;;18.30;5.70;;;;;;;2.62;97.80;102111.41;5024484;28;20037;-57
2022/12/27 01:09:27;;;;;;;13.98;4.97;;;;;;;2.54;98.29;102115.25;5025642;28;20691;-57
2022/12/27 01:11:52;;;;;;;11.18;5.10;;;;;;;2.49;99.18;102122.50;5023042;28;20551;-56
2022/12/27 01:14:17;;;;;;;13.18;5.30;;;;;;;2.49;98.95;102122.50;5023580;28;20111;-57
2022/12/27 01:16:43;;;;;;;13.60;5.20;;;;;;;2.48;98.97;102122.56;5023150;28;20042;-56
2022/12/27 01:19:08;;;;;;;12.30;4.65;;;;;;;2.50;98.95;102134.66;5025896;28;20535;-57
2022/12/27 01:21:34;;;;;;;15.30;5.07;;;;;;;2.52;98.83;102127.56;5025042;28;20049;-56
2022/12/27 01:23:59;;;;;;;14.23;5.00;;;;;;;2.45;99.83;102136.66;5023270;28;20121;-57
2022/12/27 01:26:24;;;;;;;15.25;4.75;;;;;;;2.44;99.68;102129.72;5024472;28;20033;-57
2022/12/27 01:28:51;;;;;;;12.98;4.93;;;;;;;2.48;99.53;102135.66;5032269;28;20064;-55
2022/12/27 01:31:20;;;;;;;15.63;5.00;;;;;;;2.50;99.29;102133.81;5028508;28;20037;-57
2022/12/27 01:33:45;;;;;;;13.52;5.22;;;;;;;2.43;100.00;102135.91;5026350;28;20037;-56
2022/12/27 01:36:18;;;;;;;13.25;4.88;;;;;;;2.43;100.00;102138.50;5029805;28;20038;-56
2022/12/27 01:38:46;;;;;;;12.50;5.00;;;;;;;2.46;99.91;102143.59;5019807;28;20116;-57
2022/12/27 01:44:50;;;;;;;13.35;4.97;;;;;;;2.43;100.00;102149.00;5028817;28;20107;-56
2022/12/27 01:47:35;;;;;;;16.27;4.93;;;;;;;2.45;100.00;102141.03;5029592;28;20045;-57
2022/12/27 01:50:25;;;;;;;15.82;5.13;;;;;;;2.50;100.00;102150.38;5022980;28;20091;-56
2022/12/27 01:53:17;;;;;;;12.70;5.07;;;;;;;2.36;100.00;102150.22;5021131;28;20025;-57
2022/12/27 01:55:54;;;;;;;18.25;4.90;;;;;;;2.40;100.00;102154.34;5027759;28;20083;-57
2022/12/27 01:58:34;;;;;;;13.18;4.88;;;;;;;2.37;100.00;102157.97;5023120;28;20037;-57
2022/12/27 02:01:00;;;;;;;13.02;5.00;;;;;;;2.39;100.00;102163.16;5026800;28;20029;-55
2022/12/27 02:03:29;;;;;;;17.90;5.40;;;;;;;2.40;100.00;102164.84;5025807;28;20053;-57
2022/12/27 02:05:57;;;;;;;16.27;4.95;;;;;;;2.36;100.00;102163.31;5023062;28;20048;-57
2022/12/27 02:08:35;;;;;;;16.03;5.00;;;;;;;2.36;100.00;102171.16;5021182;28;20026;-56
2022/12/27 02:11:01;;;;;;;15.43;5.07;;;;;;;2.37;100.00;102170.22;5019442;28;20030;-57
2022/12/27 02:13:30;;;;;;;17.33;5.20;;;;;;;2.34;100.00;102166.00;5023139;28;20346;-57
2022/12/27 02:15:55;;;;;;;15.32;4.75;;;;;;;2.34;100.00;102175.59;5021610;28;20041;-56
2022/12/27 02:18:21;;;;;;;14.88;5.03;;;;;;;2.40;100.00;102170.94;5022518;28;20049;-56
2022/12/27 02:21:07;;;;;;;12.32;4.88;;;;;;;2.39;100.00;102178.84;5022416;28;20073;-57
2022/12/27 02:26:39;;;;;;;17.27;5.22;;;;;;;2.37;100.00;102170.22;5024296;28;20504;-57
2022/12/27 02:29:34;;;;;;;17.10;4.90;;;;;;;2.50;100.00;102170.47;5023057;28;20084;-56
2022/12/27 02:32:13;;;;;;;15.60;5.03;;;;;;;2.43;100.00;102185.66;5017286;28;20037;-59
2022/12/27 02:34:50;;;;;;;17.45;5.20;;;;;;;2.38;100.00;102175.38;5025070;28;20144;-57
2022/12/27 02:37:19;;;;;;;12.15;4.50;;;;;;;2.52;100.00;102174.69;5023058;28;20029;-57
2022/12/27 02:39:47;;;;;;;17.95;5.15;;;;;;;2.41;100.00;102187.47;5022773;28;20035;-58
2022/12/27 02:54:14;;;;;;;14.87;4.27;;;;;;;2.49;100.00;102184.47;5021885;28;20045;-58
2022/12/27 02:57:16;;;;;;;15.73;4.53;;;;;;;2.50;100.00;102181.78;5022979;28;20033;-57
2022/12/27 03:08:57;;;;;;;13.55;4.35;;;;;;;2.50;100.00;102166.09;5018928;28;20118;-57
2022/12/27 03:17:18;;;;;;;18.00;4.10;;;;;;;2.58;100.00;102168.34;5021594;28;20180;-58
2022/12/27 03:25:27;;;;;;;15.63;4.28;;;;;;;2.67;100.00;102187.97;5023307;28;20044;-56
2022/12/27 03:33:31;;;;;;;11.95;3.80;;;;;;;2.61;100.00;102204.00;5023000;28;20064;-56
2022/12/27 03:39:06;;;;;;;13.02;3.70;;;;;;;2.62;100.00;102209.13;5027025;28;20043;-56
2022/12/27 03:44:28;;;;;;;12.63;4.00;;;;;;;2.63;100.00;102216.09;5021129;28;20064;-56
2022/12/27 03:47:01;;;;;;;14.57;4.00;;;;;;;2.61;100.00;102219.72;5024565;28;20458;-56
2022/12/27 03:49:47;;;;;;;18.17;4.25;;;;;;;2.58;100.00;102217.22;5030015;28;20068;-58
2022/12/27 03:52:16;;;;;;;15.27;4.00;;;;;;;2.59;100.00;102221.53;5022859;28;20033;-58
2022/12/27 03:54:44;;;;;;;13.23;4.50;;;;;;;2.58;100.00;102231.19;5022302;28;20037;-56
2022/12/27 03:57:14;;;;;;;15.40;4.30;;;;;;;2.57;100.00;102223.41;5016255;28;20388;-56
2022/12/27 03:59:39;;;;;;;16.25;4.00;;;;;;;2.63;100.00;102223.09;5014265;28;20030;-57
2022/12/27 04:02:05;;;;;;;11.52;3.65;;;;;;;2.60;100.00;102229.31;5018839;28;20033;-55
2022/12/27 04:04:31;;;;;;;13.55;3.88;;;;;;;2.58;100.00;102232.94;5021466;28;20025;-56
2022/12/27 04:06:56;;;;;;;16.70;4.00;;;;;;;2.60;100.00;102234.56;5019990;28;20052;-57
2022/12/27 04:36:43;;;;;;;17.45;4.20;;;;;;;2.47;100.00;102233.47;5024302;28;20044;-57
2022/12/27 04:39:08;;;;;;;11.90;3.70;;;;;;;2.50;100.00;102228.94;5025038;28;20021;-57
2022/12/27 04:55:24;;;;;;;16.95;4.10;;;;;;;2.50;100.00;102259.50;5025738;28;20455;-58
2022/12/27 04:57:51;;;;;;;12.90;3.83;;;;;;;2.48;100.00;102256.97;5022507;28;20029;-57
2022/12/27 05:03:06;;;;;;;16.17;4.20;;;;;;;2.39;100.00;102253.03;5022156;28;20048;-56
2022/12/27 05:05:34;;;;;;;18.00;4.20;;;;;;;2.42;100.00;102257.25;5022015;28;20033;-57
2022/12/27 05:16:13;;;;;;;14.63;4.10;;;;;;;2.37;100.00;102254.00;5025835;28;20600;-57
2022/12/27 05:18:38;;;;;;;12.20;4.05;;;;;;;2.37;100.00;102248.78;5022975;28;20037;-57
2022/12/27 05:21:05;;;;;;;15.52;3.80;;;;;;;2.38;100.00;102255.72;5024730;28;20117;-56
2022/12/27 05:26:27;;;;;;;13.00;3.70;;;;;;;2.41;100.00;102266.00;5023002;28;20587;-59
2022/12/27 05:28:54;;;;;;;10.88;3.63;;;;;;;2.44;100.00;102286.84;5022310;28;20033;-56
2022/12/27 05:31:20;;;;;;;17.80;4.03;;;;;;;2.47;100.00;102276.19;5016658;28;20109;-55
2022/12/27 05:33:46;;;;;;;12.70;3.70;;;;;;;2.49;100.00;102282.22;5022041;28;20041;-59
2022/12/27 05:36:12;;;;;;;14.75;4.22;;;;;;;2.50;100.00;102286.53;5029938;28;20417;-59
2022/12/27 05:38:38;;;;;;;18.13;4.10;;;;;;;2.55;100.00;102287.19;5029249;28;20033;-57
2022/12/27 05:41:03;;;;;;;14.63;4.25;;;;;;;2.54;100.00;102293.34;5022214;28;20029;-58
2022/12/27 05:43:30;;;;;;;13.95;4.05;;;;;;;2.56;100.00;102295.88;5021441;28;20056;-58
2022/12/27 05:46:01;;;;;;;15.40;4.38;;;;;;;2.60;100.00;102302.66;5024983;28;20029;-57
2022/12/27 05:48:27;;;;;;;15.35;4.50;;;;;;;2.57;100.00;102307.19;5029513;28;20536;-56
2022/12/27 05:50:52;;;;;;;16.30;4.07;;;;;;;2.58;100.00;102306.28;5026425;28;20044;-57
2022/12/27 05:53:17;;;;;;;16.63;4.15;;;;;;;2.50;100.00;102310.09;5024242;28;20033;-56
2022/12/27 05:55:42;;;;;;;14.30;4.20;;;;;;;2.45;100.00;102314.72;5014731;28;20033;-58
2022/12/27 05:58:08;;;;;;;17.70;4.30;;;;;;;2.38;100.00;102308.91;5023171;28;20021;-59
2022/12/27 06:00:33;;;;;;;17.85;4.20;;;;;;;2.36;100.00;102318.59;5023888;28;20030;-57
2022/12/27 06:02:58;;;;;;;12.68;4.18;;;;;;;2.35;100.00;102324.75;5026350;28;20051;-57
2022/12/27 06:05:24;;;;;;;17.52;4.30;;;;;;;2.34;100.00;102327.44;5023114;28;20100;-56
2022/12/27 06:07:49;;;;;;;13.95;3.95;;;;;;;2.33;100.00;102320.53;5023777;28;20590;-56
2022/12/27 06:10:15;;;;;;;10.35;4.38;;;;;;;2.29;100.00;102322.44;5023753;28;20388;-56
2022/12/27 06:12:40;;;;;;;17.88;4.40;;;;;;;2.28;100.00;102313.72;5021648;28;20042;-57
2022/12/27 06:15:05;;;;;;;11.63;3.92;;;;;;;2.28;100.00;102321.56;5023770;28;20030;-57
2022/12/27 06:17:31;;;;;;;17.25;3.95;;;;;;;2.26;100.00;102318.19;5021917;28;20034;-56
2022/12/27 06:19:56;;;;;;;14.13;4.00;;;;;;;2.28;100.00;102329.41;5025871;28;20716;-57
2022/12/27 06:22:22;;;;;;;12.50;4.25;;;;;;;2.25;100.00;102329.56;5024122;28;20090;-56
2022/12/27 06:24:47;;;;;;;13.10;4.30;;;;;;;2.24;100.00;102316.56;5023088;28;20033;-57
2022/12/27 06:27:12;;;;;;;20.13;4.13;;;;;;;2.26;100.00;102318.19;5022757;28;20036;-57
2022/12/27 06:29:37;;;;;;;14.23;4.60;;;;;;;2.26;100.00;102315.56;5021488;28;20037;-56
2022/12/27 06:32:03;;;;;;;12.07;3.92;;;;;;;2.26;100.00;102319.94;5023268;28;20489;-57
2022/12/27 06:34:28;;;;;;;16.48;4.15;;;;;;;2.26;100.00;102323.41;5023550;28;20038;-57
2022/12/27 06:36:53;;;;;;;13.35;4.20;;;;;;;2.24;100.00;102322.66;5025999;28;20033;-57
2022/12/27 06:39:19;;;;;;;15.25;4.05;;;;;;;2.22;100.00;102321.84;5021228;28;20033;-57
2022/12/27 06:41:44;;;;;;;18.45;4.68;;;;;;;2.20;100.00;102321.09;5022687;28;20499;-57
2022/12/27 06:44:10;;;;;;;17.92;4.45;;;;;;;2.20;100.00;102318.47;5022523;28;20192;-56
2022/12/27 06:46:35;;;;;;;15.35;4.10;;;;;;;2.18;100.00;102325.53;5022286;28;20033;-56
2022/12/27 06:49:01;;;;;;;19.77;4.68;;;;;;;2.13;100.00;102325.72;5023273;28;20921;-56
2022/12/27 06:51:26;;;;;;;15.00;4.50;;;;;;;2.14;100.00;102326.59;5022763;28;20037;-58
2022/12/27 06:53:52;;;;;;;15.23;4.30;;;;;;;2.15;100.00;102323.91;5021982;28;20071;-58
2022/12/27 06:56:19;;;;;;;14.10;4.13;;;;;;;2.12;100.00;102324.03;5023287;28;20413;-58
2022/12/27 06:58:45;;;;;;;13.77;4.22;;;;;;;2.09;100.00;102324.19;5021736;28;20029;-58
2022/12/27 07:01:13;;;;;;;14.17;4.50;;;;;;;2.10;100.00;102319.78;5020110;28;20099;-57
2022/12/27 07:03:39;;;;;;;13.57;4.22;;;;;;;2.07;100.00;102314.72;5025485;28;20030;-57
2022/12/27 07:06:07;;;;;;;10.73;4.18;;;;;;;2.07;100.00;102320.78;5016989;28;20049;-57
2022/12/27 07:08:34;;;;;;;14.43;4.60;;;;;;;2.03;100.00;102318.38;5027939;28;20025;-58
2022/12/27 07:11:04;;;;;;;15.73;4.73;;;;;;;2.00;100.00;102328.06;5017971;28;20034;-61
2022/12/27 07:13:36;;;;;;;15.73;4.50;;;;;;;1.97;100.00;102328.19;5022769;28;20102;-56
2022/12/27 07:16:04;;;;;;;15.52;4.72;;;;;;;1.98;100.00;102331.66;5017771;28;20037;-58
2022/12/27 07:18:29;;;;;;;16.23;4.60;;;;;;;1.95;100.00;102335.28;5018161;28;20456;-56
2022/12/27 07:20:55;;;;;;;15.85;4.72;;;;;;;1.94;100.00;102341.44;5021066;28;20056;-57
2022/12/27 07:23:20;;;;;;;12.38;4.90;;;;;;;1.95;100.00;102337.88;5018384;28;20140;-59
2022/12/27 07:25:45;;;;;;;15.15;4.78;;;;;;;1.93;100.00;102344.94;5019934;28;20087;-57
2022/12/27 07:28:11;;;;;;;18.07;5.27;;;;;;;1.96;100.00;102350.03;5027398;28;20029;-57
2022/12/27 07:30:39;;;;;;;16.90;5.37;;;;;;;1.94;100.00;102346.66;5022025;28;20166;-60
2022/12/27 07:33:04;;;;;;;17.50;4.80;;;;;;;2.00;100.00;102350.75;5022226;28;20036;-57
2022/12/27 07:35:29;;;;;;;13.77;5.05;;;;;;;1.97;100.00;102346.50;5022038;28;20053;-58
2022/12/27 07:37:55;;;;;;;15.40;5.30;;;;;;;1.98;100.00;102353.44;5025324;28;20051;-57
2022/12/27 07:40:20;;;;;;;14.15;4.63;;;;;;;2.01;100.00;102353.31;5019049;28;20045;-57
2022/12/27 07:42:45;;;;;;;16.23;5.20;;;;;;;1.97;100.00;102350.91;5023492;28;20512;-56
2022/12/27 07:45:10;;;;;;;20.67;5.65;;;;;;;1.97;100.00;102346.50;5022182;28;20416;-58
2022/12/27 07:47:36;;;;;;;17.33;5.20;;;;;;;1.95;100.00;102356.19;5023055;28;20068;-57
2022/12/27 07:50:01;;;;;;;13.80;4.87;;;;;;;1.96;100.00;102357.91;5021531;28;20512;-58
2022/12/27 07:52:26;;;;;;;14.17;5.30;;;;;;;1.99;100.00;102360.41;5020858;28;20091;-57
2022/12/27 07:54:51;;;;;;;21.47;5.60;;;;;;;1.98;100.00;102353.44;5021257;28;20048;-60
2022/12/27 07:57:17;;;;;;;21.10;5.90;;;;;;;1.98;100.00;102353.44;5019193;28;20136;-58
2022/12/27 07:59:42;;;;;;;13.10;5.28;;;;;;;2.07;100.00;102357.41;5022454;28;20037;-59
2022/12/27 08:02:08;;;;;;;16.00;5.60;;;;;;;2.03;100.00;102352.41;5021601;28;20033;-57
2022/12/27 08:04:37;;;;;;;17.03;5.80;;;;;;;2.00;100.00;102356.84;5021580;28;20029;-58
2022/12/27 08:07:11;;;;;;;15.47;5.50;;;;;;;2.07;100.00;102367.06;5025914;28;20108;-57
2022/12/27 08:09:39;;;;;;;16.67;5.53;;;;;;;2.03;100.00;102362.84;5024136;28;20068;-57
2022/12/27 08:12:05;;;;;;;17.23;6.53;;;;;;;2.14;100.00;102365.84;5023560;28;20117;-57
2022/12/27 08:14:31;;;;;;;14.20;6.07;;;;;;;2.15;100.00;102364.94;5023555;28;20022;-56
2022/12/27 08:17:21;;;;;;;16.45;6.15;;;;;;;2.13;100.00;102370.22;5023873;28;20087;-57
2022/12/27 08:19:47;;;;;;;15.00;6.03;;;;;;;2.15;100.00;102373.66;5017669;28;20125;-60
2022/12/27 08:22:12;;;;;;;15.13;6.40;;;;;;;2.15;100.00;102376.25;5021986;28;20017;-57
2022/12/27 08:24:39;;;;;;;17.70;6.20;;;;;;;2.20;100.00;102389.13;5019836;28;20028;-57
2022/12/27 08:27:05;;;;;;;16.17;5.95;;;;;;;2.24;100.00;102385.47;5022285;28;20035;-57
2022/12/27 08:29:30;;;;;;;17.27;6.05;;;;;;;2.25;100.00;102383.69;5024246;28;20021;-58
2022/12/27 08:31:56;;;;;;;17.23;6.50;;;;;;;2.26;100.00;102394.09;5023765;28;20037;-56
2022/12/27 08:34:21;;;;;;;16.38;6.43;;;;;;;2.31;100.00;102393.88;5026136;28;20030;-57
2022/12/27 08:36:50;;;;;;;15.27;5.90;;;;;;;2.33;100.00;102394.69;5020895;28;20108;-57
2022/12/27 08:39:15;;;;;;;16.00;5.90;;;;;;;2.35;100.00;102391.97;5023689;28;20059;-57
2022/12/27 08:41:40;;;;;;;19.33;6.32;;;;;;;2.34;100.00;102387.66;5026180;28;20123;-58
2022/12/27 08:44:06;;;;;;;17.02;6.55;;;;;;;2.35;100.00;102381.50;5023570;28;20184;-56
2022/12/27 08:46:31;;;;;;;18.70;6.13;;;;;;;2.36;100.00;102370.13;5022495;28;20041;-59
2022/12/27 08:48:56;;;;;;;19.20;6.85;;;;;;;2.37;100.00;102369.22;5022608;28;20433;-57
2022/12/27 08:51:22;;;;;;;18.25;5.95;;;;;;;2.38;100.00;102373.53;5024552;28;20033;-57
2022/12/27 08:53:49;;;;;;;14.77;6.50;;;;;;;2.44;100.00;102368.00;5021704;28;20052;-58
2022/12/27 08:56:14;;;;;;;15.45;6.40;;;;;;;2.44;100.00;102375.84;5021778;28;20075;-56
2022/12/27 08:58:39;;;;;;;17.70;6.82;;;;;;;2.45;100.00;102374.94;5023062;28;20030;-57
2022/12/27 09:01:06;;;;;;;16.55;6.07;;;;;;;2.48;100.00;102380.03;5023824;28;20034;-58
2022/12/27 09:03:31;;;;;;;17.60;6.38;;;;;;;2.51;100.00;102379.88;5022050;28;20405;-60
2022/12/27 09:06:17;;;;;;;15.07;6.10;;;;;;;2.54;100.00;102376.28;5025910;28;20060;-57
2022/12/27 09:08:44;;;;;;;19.42;6.45;;;;;;;2.57;100.00;102380.53;5021619;28;20036;-58
2022/12/27 09:11:14;;;;;;;15.35;6.25;;;;;;;2.60;100.00;102381.25;5023918;28;20098;-57
2022/12/27 09:13:40;;;;;;;16.95;6.30;;;;;;;2.60;100.00;102370.75;5019737;28;20038;-56
2022/12/27 09:16:11;;;;;;;18.17;6.25;;;;;;;2.65;100.00;102378.41;5020863;28;20022;-57
2022/12/27 09:18:37;;;;;;;16.27;5.90;;;;;;;2.65;100.00;102373.16;5023037;28;20025;-57
2022/12/27 09:21:05;;;;;;;17.80;6.43;;;;;;;2.67;100.00;102381.81;5024312;28;20053;-57
2022/12/27 09:23:30;;;;;;;15.73;5.63;;;;;;;2.70;100.00;102381.66;5022152;28;20141;-56
2022/12/27 09:25:55;;;;;;;15.20;5.60;;;;;;;2.75;100.00;102377.06;5021731;28;20034;-57
2022/12/27 09:28:21;;;;;;;16.98;5.68;;;;;;;2.77;100.00;102387.47;5027218;28;20026;-58
2022/12/27 09:30:46;;;;;;;15.63;5.63;;;;;;;2.81;100.00;102389.88;5031615;28;20030;-58
2022/12/27 09:33:11;;;;;;;18.98;5.68;;;;;;;2.84;100.00;102394.13;5017034;28;20049;-57
2022/12/27 09:35:37;;;;;;;16.67;5.70;;;;;;;2.90;100.00;102392.97;5015592;28;20118;-57
2022/12/27 09:38:02;;;;;;;15.65;5.80;;;;;;;2.94;100.00;102389.28;5021248;28;20386;-56
2022/12/27 09:40:27;;;;;;;17.95;5.65;;;;;;;2.99;100.00;102397.78;5022626;28;20409;-57
2022/12/27 09:43:03;;;;;;;17.92;5.30;;;;;;;3.00;100.00;102394.22;5019820;28;20053;-57
2022/12/27 09:45:45;;;;;;;15.73;5.60;;;;;;;3.12;100.00;102391.94;5023994;28;20033;-57
2022/12/27 09:48:19;;;;;;;14.00;5.25;;;;;;;3.12;100.00;102394.56;5017458;28;20049;-57
2022/12/27 09:50:51;;;;;;;13.10;5.32;;;;;;;3.19;100.00;102401.22;5029070;28;20037;-58
2022/12/27 09:53:29;;;;;;;17.02;5.68;;;;;;;3.27;100.00;102406.09;5017671;28;20033;-57
2022/12/27 09:55:56;;;;;;;18.40;5.57;;;;;;;3.29;100.00;102402.47;5015578;28;20029;-59
2022/12/27 09:58:38;;;;;;;12.75;5.43;;;;;;;3.34;100.00;102390.00;5026492;28;20461;-57
2022/12/27 10:01:36;;;;;;;16.17;5.75;;;;;;;3.40;100.00;102385.38;5025537;28;20040;-57
2022/12/27 10:04:03;;;;;;;14.80;5.72;;;;;;;3.44;100.00;102398.25;5019047;28;20045;-57
2022/12/27 10:06:47;;;;;;;16.83;5.82;;;;;;;3.53;100.00;102398.69;5017429;28;20029;-56
2022/12/27 10:09:30;;;;;;;17.35;5.75;;;;;;;3.57;100.00;102401.13;5030622;28;20051;-57
2022/12/27 10:12:13;;;;;;;15.63;5.32;;;;;;;3.65;100.00;102405.13;5041237;28;20670;-57
2022/12/27 10:14:55;;;;;;;17.83;5.47;;;;;;;3.68;100.00;102405.81;5014772;28;20037;-57
2022/12/27 10:17:40;;;;;;;18.83;6.05;;;;;;;3.80;100.00;102404.34;5024804;28;20036;-57
2022/12/27 10:20:15;;;;;;;14.52;5.93;;;;;;;3.85;100.00;102401.50;5023675;28;20036;-57
2022/12/27 10:22:48;;;;;;;11.60;5.38;;;;;;;3.87;100.00;102397.88;5022622;28;20116;-58
2022/12/27 10:25:14;;;;;;;;;;;;;;;4.00;100.00;102405.09;5022460;28;20029;-57
2022/12/27 10:27:40;;;;;;;15.05;5.53;;;;;;;3.97;100.00;102397.38;5012621;28;19963;-57
2022/12/27 10:30:13;;;;;;;12.75;5.57;;;;;;;4.05;100.00;102392.59;5024788;28;20034;-56
2022/12/27 10:32:38;;;;;;;;;;;;;;;4.20;100.00;102390.06;5018105;28;20146;-57
2022/12/27 10:35:04;;;;;;;15.82;5.15;;;;;;;4.11;100.00;102392.28;5015554;28;20314;-58
2022/12/27 10:37:30;;;;;;;15.90;5.38;;;;;;;4.16;100.00;102400.72;5012134;28;20026;-57
2022/12/27 10:40:08;;;;;;;12.77;5.40;;;;;;;4.21;100.00;102397.03;5026304;28;20029;-56
2022/12/27 10:42:38;;;;;;;16.30;5.75;;;;;;;4.27;100.00;102396.69;5028929;28;20545;-57
2022/12/27 10:45:26;;;;;;;17.92;5.60;;;;;;;4.32;100.00;102394.69;5026377;28;20704;-57
2022/12/27 10:47:54;;;;;;;14.57;5.72;;;;;;;4.32;100.00;102389.41;5020221;28;20045;-58
2022/12/27 10:50:22;;;;;;;15.70;5.47;;;;;;;4.34;100.00;102392.81;5025708;28;20025;-56
2022/12/27 10:52:47;;;;;;;18.38;5.97;;;;;;;4.39;100.00;102395.22;5025486;28;20049;-57
2022/12/27 10:55:33;;;;;;;13.25;5.75;;;;;;;4.46;100.00;102393.09;5019231;28;20096;-57
2022/12/27 10:57:58;;;;;;;13.43;5.28;;;;;;;4.48;100.00;102397.31;5015661;28;20034;-56
2022/12/27 11:00:24;;;;;;;13.68;4.82;;;;;;;4.46;100.00;102400.97;5019433;28;20087;-56
2022/12/27 11:02:56;;;;;;;14.77;5.32;;;;;;;4.44;100.00;102404.53;5016633;28;20396;-58
2022/12/27 11:05:27;;;;;;;12.20;5.20;;;;;;;4.41;100.00;102396.81;5025502;28;20026;-58
2022/12/27 11:07:53;;;;;;;13.55;5.05;;;;;;;4.42;100.00;102395.88;5020902;28;20033;-57
2022/12/27 11:10:22;;;;;;;17.40;5.10;;;;;;;4.41;100.00;102390.72;5016499;28;20030;-56
2022/12/27 11:12:54;;;;;;;13.00;5.03;;;;;;;4.46;100.00;102391.31;5018955;28;20088;-57
2022/12/27 11:15:19;;;;;;;17.27;5.30;;;;;;;4.46;100.00;102385.19;5018289;28;20033;-60
2022/12/27 11:17:54;;;;;;;14.98;5.82;;;;;;;4.47;100.00;102381.63;5022504;28;20026;-57
2022/12/27 11:20:36;;;;;;;11.50;4.93;;;;;;;4.54;100.00;102383.03;5020884;28;20044;-57
2022/12/27 11:23:12;;;;;;;13.65;5.25;;;;;;;4.56;100.00;102386.41;5021290;28;20041;-57
2022/12/27 11:25:53;;;;;;;11.90;4.80;;;;;;;4.61;100.00;102367.75;5013086;28;20474;-57
2022/12/27 11:28:37;;;;;;;16.73;5.43;;;;;;;4.65;100.00;102374.53;5015703;28;20041;-57
2022/12/27 11:31:12;;;;;;;15.00;5.10;;;;;;;4.66;100.00;102376.22;5028360;28;20025;-57
2022/12/27 11:33:48;;;;;;;14.55;4.97;;;;;;;4.71;100.00;102374.22;5016089;28;20113;-57
2022/12/27 11:36:24;;;;;;;12.60;5.00;;;;;;;4.69;100.00;102376.09;5023877;28;20026;-56
2022/12/27 11:38:49;;;;;;;12.48;4.60;;;;;;;4.76;100.00;102374.81;5025275;28;20033;-56
2022/12/27 11:41:53;;;;;;;12.70;4.88;;;;;;;4.79;100.00;102384.31;5017139;28;20088;-57
2022/12/27 11:44:27;;;;;;;13.50;4.63;;;;;;;4.79;100.00;102368.53;5018496;28;20060;-56
2022/12/27 11:47:00;;;;;;;10.32;4.63;;;;;;;4.82;100.00;102376.22;5024011;28;20076;-57
2022/12/27 11:49:31;;;;;;;13.48;4.70;;;;;;;4.80;100.00;102372.84;5032655;28;20555;-56
2022/12/27 11:52:05;;;;;;;12.18;4.80;;;;;;;4.80;100.00;102367.59;5019794;28;20034;-56
2022/12/27 11:54:39;;;;;;;12.82;4.63;;;;;;;4.87;100.00;102368.94;5025869;28;20033;-56
2022/12/27 11:57:46;;;;;;;17.58;4.80;;;;;;;5.02;100.00;102376.91;5024517;28;20481;-56
2022/12/27 12:00:22;;;;;;;13.38;4.40;;;;;;;4.88;100.00;102364.53;5018621;28;20052;-57
2022/12/27 12:03:29;;;;;;;11.35;4.40;;;;;;;4.87;100.00;102368.09;5030965;28;20041;-56
2022/12/27 12:06:28;;;;;;;11.80;4.80;;;;;;;4.84;100.00;102358.59;5024396;28;20084;-56
2022/12/27 12:09:07;;;;;;;10.40;4.70;;;;;;;4.85;100.00;102358.50;5017840;28;20029;-57
2022/12/27 12:11:50;;;;;;;13.00;4.68;;;;;;;4.80;100.00;102349.19;5025455;28;20487;-56
2022/12/27 12:14:25;;;;;;;12.60;4.60;;;;;;;4.75;100.00;102343.34;5019173;28;20543;-58
2022/12/27 12:16:59;;;;;;;13.13;4.65;;;;;;;4.74;100.00;102346.91;5021354;28;20405;-56
2022/12/27 12:20:10;;;;;;;12.88;4.57;;;;;;;4.73;100.00;102342.59;5021041;28;20033;-57
2022/12/27 12:22:49;;;;;;;12.60;4.85;;;;;;;4.69;100.00;102340.13;5022696;28;20501;-55
2022/12/27 12:25:34;;;;;;;11.70;4.85;;;;;;;4.69;100.00;102339.28;5025819;28;20029;-56
2022/12/27 12:28:16;;;;;;;10.10;4.40;;;;;;;4.67;100.00;102344.63;5024260;28;20040;-57
2022/12/27 12:30:51;;;;;;;12.50;4.40;;;;;;;4.68;100.00;102348.94;5028982;28;20032;-59
2022/12/27 12:33:35;;;;;;;14.27;4.78;;;;;;;4.68;100.00;102338.44;5021119;28;20568;-60
2022/12/27 12:36:16;;;;;;;11.13;4.40;;;;;;;4.69;100.00;102340.13;5027948;28;20036;-59
2022/12/27 12:38:57;;;;;;;12.65;4.60;;;;;;;4.73;100.00;102335.53;5023913;28;20115;-56
2022/12/27 12:41:41;;;;;;;10.38;4.68;;;;;;;4.71;100.00;102326.91;5022855;28;20033;-57
2022/12/27 12:44:31;;;;;;;12.30;4.63;;;;;;;4.74;100.00;102331.13;5019824;28;20073;-58
2022/12/27 12:47:21;;;;;;;13.38;4.40;;;;;;;4.73;100.00;102313.69;5020699;28;20362;-56
2022/12/27 12:50:27;;;;;;;11.57;4.57;;;;;;;4.69;100.00;102303.31;5024236;28;20084;-57
2022/12/27 12:53:05;;;;;;;9.15;4.57;;;;;;;4.73;100.00;102304.00;5020324;28;20163;-58
2022/12/27 12:55:59;;;;;;;13.95;4.82;;;;;;;4.75;100.00;102290.78;5025285;28;20642;-57
2022/12/27 12:58:57;;;;;;;13.88;4.90;;;;;;;4.76;100.00;102293.31;5018965;28;20143;-56
2022/12/27 13:01:51;;;;;;;16.25;4.93;;;;;;;4.75;100.00;102275.88;5005779;28;20499;-58
2022/12/27 13:04:38;;;;;;;13.15;4.55;;;;;;;4.78;100.00;102274.84;5023180;28;20048;-57
2022/12/27 13:07:21;;;;;;;17.42;4.70;;;;;;;4.78;100.00;102259.09;5024545;28;20029;-56
2022/12/27 13:10:06;;;;;;;;;;;;;;;4.85;100.00;102273.56;5017895;28;20047;-59
2022/12/27 13:12:42;;;;;;;11.35;4.65;;;;;;;4.81;100.00;102264.16;5022640;28;20007;-58
2022/12/27 13:15:32;;;;;;;10.95;4.45;;;;;;;4.87;100.00;102261.16;5025969;28;20029;-56
2022/12/27 13:18:20;;;;;;;13.32;4.50;;;;;;;4.81;100.00;102256.25;5018930;28;20504;-56
2022/12/27 13:21:08;;;;;;;10.98;4.38;;;;;;;4.81;100.00;102258.88;5015136;28;20368;-57
2022/12/27 13:23:39;;;;;;;11.75;4.35;;;;;;;4.78;100.00;102253.81;5023242;28;20245;-56